Time;durP1;ratioP1;P1;durP2;ratioP2;P2;SDS_P1;SDS_P2;PMS_P1;PMS_P2;Temp;Humidity;BMP_temperature;BMP_pressure;BME280_temperature;BME280_humidity;BME280_pressure;Samples;Min_cycle;Max_cycle;Signal;HPM_P1;HPM_P2
2021/09/30 00:00:47;;;;;;;;;;;;;;;-144.99;100.00;52439.94;5063003;28;20414;-65
2021/09/30 00:03:13;;;;;;;;;;;;;;;-144.99;100.00;52480.72;5059979;28;19997;-65
2021/09/30 00:05:42;;;;;;;;;;;;;;;-144.99;100.00;52452.16;5068541;28;19976;-62
2021/09/30 00:08:09;;;;;;;;;;;;;;;-144.99;100.00;52456.25;5065236;28;20424;-62
2021/09/30 00:10:36;;;;;;;;;;;;;;;-144.99;100.00;52411.41;5065686;28;19973;-62
2021/09/30 00:13:09;;;;;;;;;;;;;;;-144.99;100.00;52460.31;5066577;28;20274;-63
2021/09/30 00:15:51;;;;;;;;;;;;;;;-144.99;100.00;52439.94;5069751;28;20488;-63
2021/09/30 00:32:27;;;;;;;;;;;;;;;-144.99;100.00;52460.31;5066714;28;19996;-63
2021/09/30 00:35:17;;;;;;;;;;;;;;;-144.99;100.00;52460.31;5063310;28;20000;-60
2021/09/30 00:40:30;;;;;;;;;;;;;;;-144.99;100.00;52423.63;5072805;28;20046;-61
2021/09/30 00:45:49;;;;;;;;;;;;;;;-144.99;100.00;52419.56;5073297;28;20452;-60
2021/09/30 00:51:14;;;;;;;;;;;;;;;-144.99;100.00;52460.31;5056277;28;20001;-59
2021/09/30 00:53:54;;;;;;;;;;;;;;;-144.99;100.00;52437.91;5070893;28;20376;-59
2021/09/30 01:19:24;;;;;;;;;;;;;;;-144.99;100.00;52452.16;5058734;28;20000;-58
2021/09/30 01:57:45;;;;;;;;;;;;;;;-144.99;100.00;52427.72;5069154;28;20357;-61
2021/09/30 02:21:43;;;;;;;;;;;;;;;-144.99;100.00;52427.72;5046133;28;19977;-64
2021/09/30 02:27:02;;;;;;;;;;;;;;;-144.99;100.00;52439.94;5056359;28;20432;-63
2021/09/30 02:29:44;;;;;;;;;;;;;;;-144.99;100.00;52446.06;5065579;28;20184;-64
2021/09/30 02:59:49;;;;;;;;;;;;;;;-144.99;100.00;52419.56;5041387;28;20290;-62
2021/09/30 03:02:16;;;;;;;;;;;;;;;-144.99;100.00;52411.41;5065616;28;19981;-62
2021/09/30 03:04:43;;;;;;;;;;;;;;;-144.99;100.00;52454.22;5066134;28;19984;-62
2021/09/30 03:07:12;;;;;;;;;;;;;;;-144.99;100.00;52460.31;5064419;28;19989;-60
2021/09/30 03:09:41;;;;;;;;;;;;;;;-144.99;100.00;52448.09;5061923;28;20417;-60
2021/09/30 03:12:15;;;;;;;;;;;;;;;-144.99;100.00;52452.16;5063307;28;19976;-60
2021/09/30 03:14:46;;;;;;;;;;;;;;;-144.99;100.00;52435.88;5063390;28;19992;-61
2021/09/30 03:17:18;;;;;;;;;;;;;;;-144.99;100.00;52435.88;5068598;28;20572;-60
2021/09/30 03:19:51;;;;;;;;;;;;;;;-144.99;100.00;52484.78;5065532;28;20016;-60
2021/09/30 03:22:19;;;;;;;;;;;;;;;-144.99;100.00;52460.31;5070278;28;20461;-60
2021/09/30 03:24:50;;;;;;;;;;;;;;;-144.99;100.00;52456.25;5067287;28;19980;-63
2021/09/30 03:27:17;;;;;;;;;;;;;;;-144.99;100.00;52492.94;5061441;28;19989;-63
2021/09/30 03:29:43;;;;;;;;;;;;;;;-144.99;100.00;52456.25;5070150;28;20056;-63
2021/09/30 03:32:10;;;;;;;;;;;;;;;-144.99;100.00;52427.72;5067141;28;19982;-67
2021/09/30 03:34:37;;;;;;;;;;;;;;;-144.99;100.00;52456.25;5066560;28;19989;-68
2021/09/30 03:37:04;;;;;;;;;;;;;;;-144.99;100.00;52472.56;5061317;28;19974;-68
2021/09/30 03:39:31;;;;;;;;;;;;;;;-144.99;100.00;52427.72;5065897;28;19999;-67
2021/09/30 03:41:58;;;;;;;;;;;;;;;-144.99;100.00;52437.91;5069189;28;19973;-67
2021/09/30 03:44:24;;;;;;;;;;;;;;;-144.99;100.00;52439.94;5067053;28;20092;-65
2021/09/30 03:46:52;;;;;;;;;;;;;;;-144.99;100.00;52427.72;5070757;28;19984;-66
2021/09/30 03:49:24;;;;;;;;;;;;;;;-144.99;100.00;52476.63;5070414;28;20254;-65
2021/09/30 03:51:56;;;;;;;;;;;;;;;-144.99;100.00;52501.09;5065777;28;20064;-65
2021/09/30 03:54:28;;;;;;;;;;;;;;;-144.99;100.00;52456.25;5065028;28;19996;-63
2021/09/30 03:57:04;;;;;;;;;;;;;;;-144.99;100.00;52464.41;5061948;28;20016;-66
2021/09/30 03:59:30;;;;;;;;;;;;;;;-144.99;100.00;52472.56;5065742;28;20012;-63
2021/09/30 04:01:57;;;;;;;;;;;;;;;-144.99;100.00;52433.81;5061461;28;20020;-66
2021/09/30 04:04:26;;;;;;;;;;;;;;;-144.99;100.00;52435.88;5065111;28;19973;-63
2021/09/30 04:06:52;;;;;;;;;;;;;;;-144.99;100.00;52460.31;5065488;28;20060;-62
2021/09/30 04:09:23;;;;;;;;;;;;;;;-144.99;100.00;52439.94;5068234;28;20001;-62
2021/09/30 04:11:49;;;;;;;;;;;;;;;-144.99;100.00;52431.78;5065854;28;19983;-63
2021/09/30 04:14:17;;;;;;;;;;;;;;;-144.99;100.00;52452.16;5069624;28;19983;-64
2021/09/30 04:16:47;;;;;;;;;;;;;;;-144.99;100.00;52490.91;5068213;28;19977;-66
2021/09/30 04:19:14;;;;;;;;;;;;;;;-144.99;100.00;52456.25;5070059;28;20161;-67
2021/09/30 04:21:40;;;;;;;;;;;;;;;-144.99;100.00;52488.84;5064088;28;19983;-69
2021/09/30 04:24:07;;;;;;;;;;;;;;;-144.99;100.00;52429.75;5059238;28;19973;-67
2021/09/30 04:26:33;;;;;;;;;;;;;;;-144.99;100.00;52472.56;5066802;28;19980;-66
2021/09/30 04:28:59;;;;;;;;;;;;;;;-144.99;100.00;52472.56;5063764;28;19995;-66
2021/09/30 04:31:27;;;;;;;;;;;;;;;-144.99;100.00;52444.03;5062445;28;20430;-66
2021/09/30 04:33:53;;;;;;;;;;;;;;;-144.99;100.00;52488.84;5066095;28;20067;-65
2021/09/30 04:36:21;;;;;;;;;;;;;;;-144.99;100.00;52446.06;5067161;28;19988;-64
2021/09/30 04:38:47;;;;;;;;;;;;;;;-144.99;100.00;52480.72;5064722;28;20083;-65
2021/09/30 04:41:16;;;;;;;;;;;;;;;-144.99;100.00;52452.16;5063844;28;19980;-66
2021/09/30 04:43:44;;;;;;;;;;;;;;;-144.99;100.00;52456.25;5069517;28;19977;-66
2021/09/30 04:46:11;;;;;;;;;;;;;;;-144.99;100.00;52439.94;5068502;28;20008;-64
2021/09/30 04:51:13;;;;;;;;;;;;;;;-144.99;100.00;52466.44;5006046;28;20437;-66
2021/09/30 04:53:40;;;;;;;;;;;;;;;-144.99;100.00;52480.72;5010116;28;19978;-66
2021/09/30 04:56:06;;;;;;;;;;;;;;;-144.99;100.00;52448.09;5006540;28;20350;-67
2021/09/30 04:58:33;;;;;;;;;;;;;;;-144.99;100.00;52464.41;5006786;28;20455;-67
2021/09/30 05:00:59;;;;;;;;;;;;;;;-144.99;100.00;52419.56;5010881;28;19974;-66
2021/09/30 05:03:26;;;;;;;;;;;;;;;-144.99;100.00;52452.16;5004217;28;19974;-68
2021/09/30 05:05:52;;;;;;;;;;;;;;;-144.99;100.00;52478.66;5012613;28;20358;-69
2021/09/30 05:08:20;;;;;;;;;;;;;;;-144.99;100.00;52441.97;5010205;28;20001;-70
2021/09/30 05:10:47;;;;;;;;;;;;;;;-144.99;100.00;52450.13;5007324;28;19974;-69
2021/09/30 05:13:17;;;;;;;;;;;;;;;-144.99;100.00;52439.94;5008131;28;20093;-69
2021/09/30 05:15:43;;;;;;;;;;;;;;;-144.99;100.00;52452.16;5005046;28;20048;-75
2021/09/30 05:18:11;;;;;;;;;;;;;;;-144.99;100.00;52439.94;5002451;28;20009;-76
2021/09/30 05:20:37;;;;;;;;;;;;;;;-144.99;100.00;52464.41;4315316;28;10000556;-76
2021/09/30 05:23:03;;;;;;;;;;;;;;;-144.99;100.00;52460.31;5003693;28;19975;-77
2021/09/30 05:25:31;;;;;;;;;;;;;;;-144.99;100.00;52452.16;5003157;28;19982;-76
2021/09/30 05:27:58;;;;;;;;;;;;;;;-144.99;100.00;52464.41;5006012;28;20005;-75
2021/09/30 05:30:25;;;;;;;;;;;;;;;-144.99;100.00;52441.97;5002139;28;19978;-76
2021/09/30 05:32:51;;;;;;;;;;;;;;;-144.99;100.00;52460.31;5007018;28;19978;-75
2021/09/30 05:35:18;;;;;;;;;;;;;;;-144.99;100.00;52460.31;5004498;28;20245;-75
2021/09/30 05:37:44;;;;;;;;;;;;;;;-144.99;100.00;52464.41;4999334;28;20001;-75
2021/09/30 05:40:14;;;;;;;;;;;;;;;-144.99;100.00;52476.63;5007438;28;19981;-74
2021/09/30 05:42:42;;;;;;;;;;;;;;;-144.99;100.00;52444.03;4999699;28;19982;-73
2021/09/30 05:45:10;;;;;;;;;;;;;;;-144.99;100.00;52468.47;4995623;28;20415;-74
2021/09/30 05:47:37;;;;;;;;;;;;;;;-144.99;100.00;52460.31;4995812;28;20077;-74
2021/09/30 05:50:05;;;;;;;;;;;;;;;-144.99;100.00;52435.88;5007461;28;19982;-77
2021/09/30 05:52:31;;;;;;;;;;;;;;;-144.99;100.00;52460.31;5007778;28;20499;-74
2021/09/30 05:54:58;;;;;;;;;;;;;;;-144.99;100.00;52456.25;5008145;28;19978;-74
2021/09/30 05:57:24;;;;;;;;;;;;;;;-144.99;100.00;52456.25;4991465;28;20407;-74
2021/09/30 05:59:52;;;;;;;;;;;;;;;-144.99;100.00;52419.56;4996544;28;19982;-75
2021/09/30 06:10:27;;;;;;;;;;;;;;;-144.99;100.00;52439.94;5004373;28;20434;-75
2021/09/30 06:12:57;;;;;;;;;;;;;;;-144.99;100.00;52472.56;5007742;28;20398;-76
2021/09/30 06:15:31;;;;;;;;;;;;;;;-144.99;100.00;52431.78;4995029;28;19978;-73
2021/09/30 06:17:59;;;;;;;;;;;;;;;-144.99;100.00;52464.41;5005852;28;20176;-73
2021/09/30 06:20:25;;;;;;;;;;;;;;;-144.99;99.33;52472.56;5000438;28;20007;-73
2021/09/30 06:22:52;;;;;;;;;;;;;;;-144.99;99.01;52448.09;4999881;28;20331;-75
2021/09/30 06:25:19;;;;;;;;;;;;;;;-144.99;98.48;52419.56;5006948;28;19997;-73
2021/09/30 06:27:46;;;;;;;;;;;;;;;-144.99;97.31;52458.28;5005089;28;20417;-76
2021/09/30 06:30:13;;;;;;;;;;;;;;;-144.99;96.63;52476.63;4994791;28;20419;-73
2021/09/30 06:32:40;;;;;;;;;;;;;;;-144.99;96.12;52437.91;5006324;28;19982;-75
2021/09/30 06:35:07;;;;;;;;;;;;;;;-144.99;96.01;52429.75;5001454;28;19982;-76
2021/09/30 06:37:34;;;;;;;;;;;;;;;-144.99;96.01;52464.41;5002048;28;20378;-75
2021/09/30 06:40:00;;;;;;;;;;;;;;;-144.99;96.55;52450.13;5006342;28;19989;-75
2021/09/30 06:42:27;;;;;;;;;;;;;;;-144.99;97.21;52448.09;5007136;28;20040;-75
2021/09/30 06:44:53;;;;;;;;;;;;;;;-144.99;97.06;52456.25;5000508;28;20403;-75
2021/09/30 06:47:19;;;;;;;;;;;;;;;-144.99;96.92;52452.16;5005909;28;20421;-75
2021/09/30 06:49:47;;;;;;;;;;;;;;;-144.99;96.95;52468.47;5004871;28;19993;-75
2021/09/30 06:52:13;;;;;;;;;;;;;;;-144.99;97.10;52456.25;4998515;28;20486;-75
2021/09/30 06:54:40;;;;;;;;;;;;;;;-144.99;97.80;52486.81;5007644;28;19982;-75
2021/09/30 06:57:06;;;;;;;;;;;;;;;-144.99;97.45;52460.31;5014881;28;19994;-75
2021/09/30 06:59:35;;;;;;;;;;;;;;;-144.99;97.33;52403.25;5014928;28;19992;-73
2021/09/30 07:02:06;;;;;;;;;;;;;;;-144.99;97.32;52439.94;5008986;28;19986;-75
2021/09/30 07:04:33;;;;;;;;;;;;;;;-144.99;97.61;52448.09;5004793;28;20417;-75
2021/09/30 07:07:02;;;;;;;;;;;;;;;-144.99;97.73;52466.44;4998618;28;19994;-74
2021/09/30 07:09:30;;;;;;;;;;;;;;;-144.99;97.62;52468.47;5002711;28;19986;-73
2021/09/30 07:11:57;;;;;;;;;;;;;;;-144.99;97.45;52460.31;5000297;28;19982;-75
2021/09/30 07:14:23;;;;;;;;;;;;;;;-144.99;97.64;52403.25;4995344;28;19978;-73
2021/09/30 07:16:50;;;;;;;;;;;;;;;-144.99;97.45;52448.09;5000672;28;19981;-74
2021/09/30 07:19:16;;;;;;;;;;;;;;;-144.99;96.89;52456.25;5007629;28;19985;-73
2021/09/30 07:21:43;;;;;;;;;;;;;;;-144.99;96.85;52431.78;5004252;28;20076;-74
2021/09/30 07:24:10;;;;;;;;;;;;;;;-144.99;96.66;52423.63;5003302;28;19951;-74
2021/09/30 07:26:37;;;;;;;;;;;;;;;-144.99;95.95;52399.19;4998093;28;19998;-73
2021/09/30 07:29:03;;;;;;;;;;;;;;;-144.99;94.27;52427.72;5005689;28;19990;-75
2021/09/30 07:31:30;;;;;;;;;;;;;;;-144.99;93.19;52435.88;4999022;28;20431;-75
2021/09/30 07:33:56;;;;;;;;;;;;;;;-144.99;91.79;52456.25;4998310;28;20357;-74
2021/09/30 07:36:22;;;;;;;;;;;;;;;-144.99;91.75;52403.25;4996873;28;19977;-74
2021/09/30 07:38:49;;;;;;;;;;;;;;;-144.99;92.63;52431.78;4998575;28;20001;-74
2021/09/30 07:41:17;;;;;;;;;;;;;;;-144.99;92.18;52413.44;5005535;28;20005;-73
2021/09/30 07:43:43;;;;;;;;;;;;;;;-144.99;92.94;52435.88;5004328;28;19989;-74
2021/09/30 07:46:09;;;;;;;;;;;;;;;-144.99;92.72;52431.78;5001226;28;20101;-74
2021/09/30 07:48:36;;;;;;;;;;;;;;;-144.99;92.37;52427.72;4996441;28;19998;-74
2021/09/30 07:51:02;;;;;;;;;;;;;;;-144.99;93.04;52441.97;5003550;28;19992;-74
2021/09/30 07:53:29;;;;;;;;;;;;;;;-144.99;92.07;52472.56;4997053;28;19996;-74
2021/09/30 07:55:55;;;;;;;;;;;;;;;-144.99;92.28;52419.56;4994879;28;19978;-73
2021/09/30 07:58:24;;;;;;;;;;;;;;;-144.99;92.26;52415.47;5002455;28;19990;-73
2021/09/30 08:00:51;;;;;;;;;;;;;;;-144.99;92.20;52456.25;5003346;28;20024;-73
2021/09/30 08:03:17;;;;;;;;;;;;;;;-144.99;91.54;52468.47;5005669;28;19978;-73
2021/09/30 08:05:44;;;;;;;;;;;;;;;-144.99;91.51;52448.09;4998135;28;19994;-73
2021/09/30 08:08:10;;;;;;;;;;;;;;;-144.99;90.99;52452.16;4997885;28;19994;-74
2021/09/30 08:10:37;;;;;;;;;;;;;;;-144.99;92.82;52448.09;5006351;28;19989;-73
2021/09/30 08:13:04;;;;;;;;;;;;;;;-144.99;93.61;52452.16;5002121;28;20152;-74
2021/09/30 08:15:32;;;;;;;;;;;;;;;-144.99;92.17;52444.03;4999306;28;19990;-74
2021/09/30 08:17:58;;;;;;;;;;;;;;;-144.99;92.55;52437.91;5003171;28;19997;-74
2021/09/30 08:20:25;;;;;;;;;;;;;;;-144.99;91.64;52468.47;4998479;28;20453;-73
2021/09/30 08:22:53;;;;;;;;;;;;;;;-144.99;91.56;52423.63;4999267;28;19982;-73
2021/09/30 08:25:19;;;;;;;;;;;;;;;-144.99;90.42;52407.31;4998129;28;19982;-73
2021/09/30 08:27:45;;;;;;;;;;;;;;;-144.99;89.92;52460.31;5000704;28;20008;-74
2021/09/30 08:30:12;;;;;;;;;;;;;;;-144.99;89.31;52433.81;4999251;28;19982;-68
2021/09/30 08:32:42;;;;;;;;;;;;;;;-144.99;87.92;52399.19;5004014;28;20392;-68
2021/09/30 08:35:09;;;;;;;;;;;;;;;-144.99;86.74;52411.41;5005550;28;20008;-67
2021/09/30 08:37:36;;;;;;;;;;;;;;;-144.99;85.89;52444.03;4994261;28;19994;-68
2021/09/30 08:40:03;;;;;;;;;;;;;;;-144.99;86.31;52423.63;4999320;28;19978;-68
2021/09/30 08:42:30;;;;;;;;;;;;;;;-144.99;87.14;52431.78;5005760;28;20350;-68
2021/09/30 08:44:58;;;;;;;;;;;;;;;-144.99;87.00;52425.66;5003269;28;19982;-68
2021/09/30 08:47:24;;;;;;;;;;;;;;;-144.99;87.36;52427.72;5004687;28;20085;-68
2021/09/30 08:49:52;;;;;;;;;;;;;;;-144.99;87.48;52431.78;5003832;28;19985;-68
2021/09/30 08:52:18;;;;;;;;;;;;;;;-144.99;87.70;52452.16;5008161;28;20371;-68
2021/09/30 08:54:45;;;;;;;;;;;;;;;-144.99;87.25;52382.88;5001014;28;19981;-68
2021/09/30 08:57:11;;;;;;;;;;;;;;;-144.99;85.95;52417.53;5016213;28;19993;-68
2021/09/30 08:59:39;;;;;;;;;;;;;;;-144.99;83.80;52391.03;5015371;28;19986;-67
2021/09/30 09:02:07;;;;;;;;;;;;;;;-144.99;83.36;52386.94;5005207;28;20258;-68
2021/09/30 09:04:34;;;;;;;;;;;;;;;-144.99;82.46;52362.50;4996120;28;20392;-68
2021/09/30 09:07:09;;;;;;;;;;;;;;;-144.99;81.30;52370.63;5008902;28;20279;-68
2021/09/30 09:09:35;;;;;;;;;;;;;;;-144.99;78.89;52370.63;5008153;28;20414;-67
2021/09/30 09:12:08;;;;;;;;;;;;;;;-144.99;77.97;52388.97;5005782;28;20442;-68
2021/09/30 09:14:36;;;;;;;;;;;;;;;-144.99;76.88;52366.56;5010411;28;20021;-70
2021/09/30 09:17:03;;;;;;;;;;;;;;;-144.99;76.97;52403.25;5010436;28;19989;-67
2021/09/30 09:19:38;;;;;;;;;;;;;;;-144.99;77.87;52384.91;5010925;28;19984;-69
2021/09/30 09:22:06;;;;;;;;;;;;;;;-144.99;77.05;52374.72;5008033;28;19994;-69
2021/09/30 09:24:34;;;;;;;;;;;;;;;-144.99;76.28;52386.94;5008744;28;20004;-68
2021/09/30 09:27:00;;;;;;;;;;;;;;;-144.99;75.22;52366.56;5009609;28;20050;-69
2021/09/30 09:29:28;;;;;;;;;;;;;;;-144.99;74.83;52395.09;5008693;28;20017;-69
2021/09/30 09:31:55;;;;;;;;;;;;;;;-144.99;75.78;52378.78;5009002;28;19988;-68
2021/09/30 09:34:23;;;;;;;;;;;;;;;-144.99;75.93;52386.94;5009174;28;20077;-67
2021/09/30 09:36:50;;;;;;;;;;;;;;;-144.99;76.03;52376.75;5002062;28;19986;-67
2021/09/30 09:39:17;;;;;;;;;;;;;;;-144.99;73.86;52395.09;5010480;28;19974;-69
2021/09/30 09:41:45;;;;;;;;;;;;;;;-144.99;74.06;52346.19;5008745;28;19982;-69
2021/09/30 09:44:11;;;;;;;;;;;;;;;-144.99;75.08;52397.13;5007134;28;19993;-68
2021/09/30 09:46:39;;;;;;;;;;;;;;;-144.99;75.97;52446.06;5006020;28;20352;-68
2021/09/30 09:49:06;;;;;;;;;;;;;;;-144.99;74.50;52395.09;5007569;28;19997;-68
2021/09/30 09:51:36;;;;;;;;;;;;;;;-144.99;71.91;52338.03;5001270;28;19972;-68
2021/09/30 09:54:08;;;;;;;;;;;;;;;-144.99;71.32;52391.03;5009285;28;19977;-68
2021/09/30 09:56:34;;;;;;;;;;;;;;;-144.99;72.99;52338.03;5011558;28;19988;-68
2021/09/30 09:59:02;;;;;;;;;;;;;;;-144.99;73.55;52391.03;5019432;28;19994;-68
2021/09/30 10:01:37;;;;;;;;;;;;;;;-144.99;73.54;52354.34;5008560;28;19982;-68
2021/09/30 10:04:03;;;;;;;;;;;;;;;-144.99;74.28;52374.72;5008042;28;20310;-68
2021/09/30 10:06:30;;;;;;;;;;;;;;;-144.99;75.46;52395.09;5009889;28;20537;-68
2021/09/30 10:08:57;;;;;;;;;;;;;;;-144.99;76.89;52452.16;5005462;28;20004;-68
2021/09/30 10:11:25;;;;;;;;;;;;;;;-144.99;77.15;52403.25;5005856;28;19985;-67
2021/09/30 10:13:52;;;;;;;;;;;;;;;-144.99;77.96;52358.41;5008294;28;20077;-68
2021/09/30 10:16:25;;;;;;;;;;;;;;;-144.99;76.91;52370.63;5007296;28;19982;-68
2021/09/30 10:18:51;;;;;;;;;;;;;;;-144.99;75.19;52382.88;5008275;28;19993;-68
2021/09/30 10:21:17;;;;;;;;;;;;;;;-144.99;75.56;52399.19;5007325;28;20458;-68
2021/09/30 10:23:49;;;;;;;;;;;;;;;-144.99;75.33;52370.63;5007857;28;19989;-68
2021/09/30 10:26:17;;;;;;;;;;;;;;;-144.99;75.32;52370.63;4998822;28;20455;-68
2021/09/30 10:28:44;;;;;;;;;;;;;;;-144.99;75.13;52366.56;5007998;28;20168;-68
2021/09/30 10:31:23;;;;;;;;;;;;;;;-144.99;72.46;52358.41;4999505;28;19974;-69
2021/09/30 10:33:49;;;;;;;;;;;;;;;-144.99;68.51;52223.88;5009832;28;19988;-68
2021/09/30 10:36:31;;;;;;;;;;;;;;;-144.99;65.64;52315.59;5007945;28;19974;-69
2021/09/30 10:39:12;;;;;;;;;;;;;;;-144.99;65.71;52183.13;5004439;28;20466;-68
2021/09/30 10:41:38;;;;;;;;;;;;;;;-144.99;65.65;52278.91;5008421;28;19982;-69
2021/09/30 10:44:12;;;;;;;;;;;;;;;-144.99;66.84;52378.78;5006431;28;20344;-68
2021/09/30 10:46:47;;;;;;;;;;;;;;;-144.99;70.11;52362.50;5005182;28;20008;-68
2021/09/30 10:49:32;;;;;;;;;;;;;;;-144.99;73.87;52403.25;5001028;28;20454;-68
2021/09/30 10:52:18;;;;;;;;;;;;;;;-144.99;76.33;52435.88;5004411;28;19974;-68
2021/09/30 10:54:47;;;;;;;;;;;;;;;-144.99;79.08;52423.63;5005251;28;19985;-68
2021/09/30 10:57:32;;;;;;;;;;;;;;;-144.99;79.17;52427.72;5016542;28;20424;-68
2021/09/30 10:59:58;;;;;;;;;;;;;;;-144.99;80.02;52415.47;5010407;28;19978;-68
2021/09/30 11:02:26;;;;;;;;;;;;;;;-144.99;78.91;52407.31;5007246;28;19974;-69
2021/09/30 11:05:03;;;;;;;;;;;;;;;-144.99;78.77;52380.84;4998805;28;19982;-68
2021/09/30 11:07:29;;;;;;;;;;;;;;;-144.99;77.99;52374.72;5007526;28;19998;-68
2021/09/30 11:10:14;;;;;;;;;;;;;;;-144.99;77.29;52358.41;5005574;28;19985;-69
2021/09/30 11:12:40;;;;;;;;;;;;;;;-144.99;76.55;52350.25;5004886;28;19982;-68
2021/09/30 11:15:07;;;;;;;;;;;;;;;-144.99;73.04;52354.34;5007943;28;19988;-69
2021/09/30 11:17:35;;;;;;;;;;;;;;;-144.99;71.43;52358.41;5004174;28;19994;-68
2021/09/30 11:20:20;;;;;;;;;;;;;;;-144.99;69.86;52391.03;5007999;28;19978;-69
2021/09/30 11:22:46;;;;;;;;;;;;;;;-144.99;69.02;52366.56;5007095;28;19978;-69
2021/09/30 11:25:13;;;;;;;;;;;;;;;-144.99;68.64;52338.03;5007317;28;19974;-69
2021/09/30 11:27:39;;;;;;;;;;;;;;;-144.99;66.91;52309.50;5006756;28;19930;-69
2021/09/30 11:30:16;;;;;;;;;;;;;;;-144.99;65.75;52225.94;5003925;28;20343;-69
2021/09/30 11:32:44;;;;;;;;;;;;;;;-144.99;64.77;52366.56;5006950;28;19977;-69
2021/09/30 11:35:10;;;;;;;;;;;;;;;-144.99;63.82;52232.03;5005820;28;20466;-69
2021/09/30 11:37:42;;;;;;;;;;;;;;;-144.99;61.04;52199.44;5004430;28;20108;-70
2021/09/30 11:40:19;;;;;;;;;;;;;;;-144.99;58.37;52179.06;4999628;28;19978;-69
2021/09/30 11:42:48;;;;;;;;;;;;;;;-144.99;56.60;52317.66;5005352;28;20024;-69
2021/09/30 11:45:15;;;;;;;;;;;;;;;-144.99;56.36;52315.59;5003369;28;19982;-69
2021/09/30 11:47:42;;;;;;;;;;;;;;;-144.99;57.93;52338.03;5006621;28;20005;-69
2021/09/30 11:50:16;;;;;;;;;;;;;;;-144.99;60.00;52362.50;5005204;28;20335;-69
2021/09/30 11:52:42;;;;;;;;;;;;;;;-144.99;62.46;52325.81;5004947;28;19982;-69
2021/09/30 11:55:10;;;;;;;;;;;;;;;-144.99;60.86;52350.25;5001337;28;19978;-69
2021/09/30 11:57:36;;;;;;;;;;;;;;;-144.99;60.65;52370.63;5007336;28;20160;-69
2021/09/30 12:00:10;;;;;;;;;;;;;;;-144.99;60.96;52354.34;5009067;28;20016;-69
2021/09/30 12:02:36;;;;;;;;;;;;;;;-144.99;60.65;52179.06;5006784;28;19985;-69
2021/09/30 12:05:03;;;;;;;;;;;;;;;-144.99;57.96;52158.66;5004073;28;20445;-69
2021/09/30 12:07:30;;;;;;;;;;;;;;;-144.99;56.94;52374.72;5007594;28;20136;-69
2021/09/30 12:09:58;;;;;;;;;;;;;;;-144.99;57.38;52203.50;5004115;28;19981;-68
2021/09/30 12:12:27;;;;;;;;;;;;;;;-144.99;55.64;52203.50;5004169;28;19997;-68
2021/09/30 12:14:55;;;;;;;;;;;;;;;-144.99;55.37;52166.81;5007313;28;19985;-68
2021/09/30 12:17:22;;;;;;;;;;;;;;;-144.99;53.73;52166.81;5003390;28;20084;-68
2021/09/30 12:19:50;;;;;;;;;;;;;;;-144.99;52.50;52117.91;5005495;28;20512;-68
2021/09/30 12:22:17;;;;;;;;;;;;;;;-144.99;50.74;52150.53;5006338;28;19985;-68
2021/09/30 12:24:46;;;;;;;;;;;;;;;-144.99;51.81;52183.13;5002664;28;19978;-68
2021/09/30 12:27:13;;;;;;;;;;;;;;;-144.99;51.63;52191.28;5006409;28;20001;-68
2021/09/30 12:29:41;;;;;;;;;;;;;;;-144.99;50.40;52158.66;5004982;28;20470;-68
2021/09/30 12:32:09;;;;;;;;;;;;;;;-144.99;50.27;52138.28;5004971;28;20138;-68
2021/09/30 12:34:36;;;;;;;;;;;;;;;-144.99;49.60;52117.91;5005966;28;19974;-68
2021/09/30 12:37:02;;;;;;;;;;;;;;;-144.99;49.86;52150.53;5003382;28;19980;-68
2021/09/30 12:39:30;;;;;;;;;;;;;;;-144.99;50.81;52317.66;5006426;28;19978;-68
2021/09/30 12:42:10;;;;;;;;;;;;;;;-144.99;51.06;52172.94;5006530;28;20327;-68
2021/09/30 12:44:41;;;;;;;;;;;;;;;-144.99;50.56;52154.59;5006872;28;19977;-68
2021/09/30 12:47:08;;;;;;;;;;;;;;;-144.99;49.97;52293.19;5004353;28;20540;-69
2021/09/30 12:49:34;;;;;;;;;;;;;;;-144.99;51.43;52338.03;5006445;28;19982;-68
2021/09/30 12:52:16;;;;;;;;;;;;;;;-144.99;51.34;52162.75;5006414;28;19985;-68
2021/09/30 12:54:44;;;;;;;;;;;;;;;-144.99;51.46;52348.22;5001852;28;20326;-68
2021/09/30 12:57:12;;;;;;;;;;;;;;;-144.99;52.21;52309.50;5003167;28;20069;-68
2021/09/30 12:59:39;;;;;;;;;;;;;;;-144.99;54.40;52386.94;5005906;28;19997;-68
2021/09/30 13:02:05;;;;;;;;;;;;;;;-144.99;55.33;52360.44;5005701;28;20101;-68
2021/09/30 13:04:33;;;;;;;;;;;;;;;-144.99;55.06;52403.25;4997579;28;20002;-68
2021/09/30 13:07:00;;;;;;;;;;;;;;;-144.99;55.08;52403.25;5004723;28;20447;-68
2021/09/30 13:09:29;;;;;;;;;;;;;;;-144.99;55.35;52329.88;5004161;28;19978;-68
2021/09/30 13:11:56;;;;;;;;;;;;;;;-144.99;53.51;52362.50;5003260;28;19993;-68
2021/09/30 13:14:26;;;;;;;;;;;;;;;-144.99;54.18;52232.03;5004934;28;20001;-68
2021/09/30 13:16:54;;;;;;;;;;;;;;;-144.99;53.51;52399.19;5002367;28;20270;-67
2021/09/30 13:19:21;;;;;;;;;;;;;;;-144.99;52.93;52252.44;5006344;28;20400;-67
2021/09/30 13:21:58;;;;;;;;;;;;;;;-144.99;52.51;52262.63;5001817;28;19982;-68
2021/09/30 13:24:24;;;;;;;;;;;;;;;-144.99;51.85;52252.44;5002676;28;19985;-68
2021/09/30 13:26:50;;;;;;;;;;;;;;;-144.99;51.87;52223.88;5005605;28;20604;-69
2021/09/30 13:29:17;;;;;;;;;;;;;;;-144.99;51.13;52234.09;5006318;28;20000;-68
2021/09/30 13:31:44;;;;;;;;;;;;;;;-144.99;49.48;52195.34;5005136;28;19978;-68
2021/09/30 13:34:11;;;;;;;;;;;;;;;-144.99;49.01;52170.91;5002306;28;19985;-69
2021/09/30 13:36:38;;;;;;;;;;;;;;;-144.99;49.84;52327.84;5004359;28;19986;-69
2021/09/30 13:39:05;;;;;;;;;;;;;;;-144.99;51.14;52395.09;4993097;28;20049;-69
2021/09/30 13:41:31;;;;;;;;;;;;;;;-144.99;52.57;52358.41;5005534;28;19989;-69
2021/09/30 13:43:58;;;;;;;;;;;;;;;-144.99;54.12;52358.41;5006714;28;20423;-69
2021/09/30 13:46:24;;;;;;;;;;;;;;;-144.99;55.57;52374.72;5013670;28;19959;-69
2021/09/30 13:48:52;;;;;;;;;;;;;;;-144.99;56.88;52431.78;5009275;28;19998;-68
2021/09/30 13:51:18;;;;;;;;;;;;;;;-144.99;58.05;52427.72;5008690;28;20033;-69
2021/09/30 13:53:44;;;;;;;;;;;;;;;-144.99;59.82;52484.78;4999966;28;20016;-69
2021/09/30 13:56:11;;;;;;;;;;;;;;;-144.99;64.81;52427.72;5008487;28;19993;-67
2021/09/30 13:58:37;;;;;;;;;;;;;;;-144.99;68.40;52421.59;5009777;28;20004;-68
2021/09/30 14:01:03;;;;;;;;;;;;;;;-144.99;69.80;52429.75;5009123;28;20082;-68
2021/09/30 14:03:30;;;;;;;;;;;;;;;-144.99;70.82;52431.78;5012240;28;19996;-67
2021/09/30 14:05:58;;;;;;;;;;;;;;;-144.99;71.26;52456.25;5008260;28;20037;-67
2021/09/30 14:08:28;;;;;;;;;;;;;;;-144.99;72.13;52452.16;5009349;28;20017;-67
2021/09/30 14:10:55;;;;;;;;;;;;;;;-144.99;72.51;52458.28;5007871;28;19982;-68
2021/09/30 14:13:23;;;;;;;;;;;;;;;-144.99;74.46;52431.78;5008782;28;20431;-68
2021/09/30 14:15:50;;;;;;;;;;;;;;;-144.99;74.24;52309.50;5008873;28;20064;-68
2021/09/30 14:18:16;;;;;;;;;;;;;;;-144.99;72.64;52431.78;5008704;28;20002;-68
2021/09/30 14:20:43;;;;;;;;;;;;;;;-144.99;71.44;52411.41;5006172;28;19981;-68
2021/09/30 14:23:12;;;;;;;;;;;;;;;-144.99;69.48;52313.56;5007970;28;20074;-70
2021/09/30 14:25:38;;;;;;;;;;;;;;;-144.99;67.86;52342.09;4997414;28;20000;-69
2021/09/30 14:28:05;;;;;;;;;;;;;;;-144.99;65.50;52354.34;5008111;28;20002;-69
2021/09/30 14:30:31;;;;;;;;;;;;;;;-144.99;63.62;52260.56;5000550;28;20019;-68
2021/09/30 14:32:58;;;;;;;;;;;;;;;-144.99;62.35;52368.59;4997124;28;19981;-69
2021/09/30 14:35:24;;;;;;;;;;;;;;;-144.99;61.88;52409.38;5002920;28;20446;-69
2021/09/30 14:37:51;;;;;;;;;;;;;;;-144.99;63.03;52378.78;5005343;28;20001;-69
2021/09/30 14:40:19;;;;;;;;;;;;;;;-144.99;64.08;52423.63;5008835;28;20073;-69
2021/09/30 14:42:45;;;;;;;;;;;;;;;-144.99;65.23;52439.94;5008132;28;20004;-69
2021/09/30 14:45:11;;;;;;;;;;;;;;;-144.99;65.78;52370.63;5008085;28;20052;-69
2021/09/30 14:47:38;;;;;;;;;;;;;;;-144.99;65.09;52397.13;5007827;28;20008;-68
2021/09/30 14:50:04;;;;;;;;;;;;;;;-144.99;66.23;52439.94;5007445;28;19990;-69
2021/09/30 14:52:31;;;;;;;;;;;;;;;-144.99;66.21;52382.88;5007646;28;19996;-69